sensor_id;sensor_type;location;lat;lon;timestamp;pressure;altitude;pressure_sealevel;temperature;humidity
73106;BME280;61559;50.476;15.588;2022-08-02T00:01:21;97795.92;;;15.45;77.04
73106;BME280;61559;50.476;15.588;2022-08-02T00:03:52;97796.95;;;15.32;77.46
73106;BME280;61559;50.476;15.588;2022-08-02T00:06:37;97792.98;;;15.14;77.78
73106;BME280;61559;50.476;15.588;2022-08-02T00:09:08;97788.90;;;14.98;78.15
73106;BME280;61559;50.476;15.588;2022-08-02T00:11:39;97783.53;;;14.89;78.07
73106;BME280;61559;50.476;15.588;2022-08-02T00:14:11;97780.19;;;14.84;78.30
73106;BME280;61559;50.476;15.588;2022-08-02T00:16:56;97780.89;;;14.83;78.34
73106;BME280;61559;50.476;15.588;2022-08-02T00:19:27;97781.48;;;14.85;78.15
73106;BME280;61559;50.476;15.588;2022-08-02T00:21:58;97779.98;;;14.89;78.12
73106;BME280;61559;50.476;15.588;2022-08-02T00:24:29;97775.81;;;14.92;78.09
73106;BME280;61559;50.476;15.588;2022-08-02T00:27:00;97776.42;;;14.92;78.27
73106;BME280;61559;50.476;15.588;2022-08-02T00:29:37;97774.80;;;14.95;78.24
73106;BME280;61559;50.476;15.588;2022-08-02T00:32:21;97770.29;;;14.92;78.21
73106;BME280;61559;50.476;15.588;2022-08-02T00:34:52;97769.80;;;14.96;77.96
73106;BME280;61559;50.476;15.588;2022-08-02T00:37:23;97771.74;;;14.94;77.92
73106;BME280;61559;50.476;15.588;2022-08-02T00:39:54;97772.18;;;14.92;77.89
73106;BME280;61559;50.476;15.588;2022-08-02T00:42:26;97769.66;;;14.89;77.89
73106;BME280;61559;50.476;15.588;2022-08-02T00:44:57;97771.66;;;14.86;77.79
73106;BME280;61559;50.476;15.588;2022-08-02T00:47:28;97775.20;;;14.83;77.67
73106;BME280;61559;50.476;15.588;2022-08-02T00:50:00;97774.98;;;14.80;77.36
73106;BME280;61559;50.476;15.588;2022-08-02T00:52:31;97775.48;;;14.78;77.33
73106;BME280;61559;50.476;15.588;2022-08-02T00:55:02;97777.24;;;14.74;77.49
73106;BME280;61559;50.476;15.588;2022-08-02T00:57:34;97774.92;;;14.70;77.78
73106;BME280;61559;50.476;15.588;2022-08-02T01:00:25;97779.95;;;14.67;77.72
73106;BME280;61559;50.476;15.588;2022-08-02T01:02:58;97782.29;;;14.66;77.69
73106;BME280;61559;50.476;15.588;2022-08-02T01:05:29;97788.77;;;14.65;77.52
73106;BME280;61559;50.476;15.588;2022-08-02T01:08:21;97789.52;;;14.63;77.16
73106;BME280;61559;50.476;15.588;2022-08-02T01:11:00;97792.05;;;14.59;77.25
73106;BME280;61559;50.476;15.588;2022-08-02T01:13:31;97795.94;;;14.55;77.31
73106;BME280;61559;50.476;15.588;2022-08-02T01:16:07;97795.30;;;14.51;77.82
73106;BME280;61559;50.476;15.588;2022-08-02T01:18:44;97795.70;;;14.45;77.93
73106;BME280;61559;50.476;15.588;2022-08-02T01:21:26;97793.63;;;14.38;77.98
73106;BME280;61559;50.476;15.588;2022-08-02T01:24:17;97795.28;;;14.29;78.49
73106;BME280;61559;50.476;15.588;2022-08-02T01:26:54;97795.09;;;14.10;78.87
73106;BME280;61559;50.476;15.588;2022-08-02T01:29:32;97793.83;;;13.96;79.04
73106;BME280;61559;50.476;15.588;2022-08-02T01:32:09;97791.14;;;13.91;79.27
73106;BME280;61559;50.476;15.588;2022-08-02T01:34:44;97791.77;;;13.91;79.30
73106;BME280;61559;50.476;15.588;2022-08-02T01:37:19;97792.19;;;13.93;79.12
73106;BME280;61559;50.476;15.588;2022-08-02T01:39:56;97797.09;;;13.94;79.00
73106;BME280;61559;50.476;15.588;2022-08-02T01:42:27;97791.88;;;13.93;78.74
73106;BME280;61559;50.476;15.588;2022-08-02T01:45:01;97789.65;;;13.91;78.79
73106;BME280;61559;50.476;15.588;2022-08-02T01:47:35;97793.77;;;13.90;79.03
73106;BME280;61559;50.476;15.588;2022-08-02T01:50:13;97793.40;;;13.92;78.98
73106;BME280;61559;50.476;15.588;2022-08-02T01:52:48;97789.71;;;13.94;78.65
73106;BME280;61559;50.476;15.588;2022-08-02T01:55:25;97789.56;;;13.94;78.68
73106;BME280;61559;50.476;15.588;2022-08-02T01:58:15;97786.02;;;13.85;78.93
73106;BME280;61559;50.476;15.588;2022-08-02T02:00:47;97781.01;;;13.74;79.10
73106;BME280;61559;50.476;15.588;2022-08-02T02:03:21;97783.06;;;13.63;79.12
73106;BME280;61559;50.476;15.588;2022-08-02T02:05:55;97781.95;;;13.58;79.12
73106;BME280;61559;50.476;15.588;2022-08-02T02:08:30;97784.70;;;13.59;79.25
73106;BME280;61559;50.476;15.588;2022-08-02T02:11:02;97786.46;;;13.61;79.17
73106;BME280;61559;50.476;15.588;2022-08-02T02:13:55;97780.23;;;13.62;78.82
73106;BME280;61559;50.476;15.588;2022-08-02T02:16:28;97783.35;;;13.65;78.82
73106;BME280;61559;50.476;15.588;2022-08-02T02:19:02;97782.66;;;13.66;78.66
73106;BME280;61559;50.476;15.588;2022-08-02T02:21:33;97782.05;;;13.63;78.33
73106;BME280;61559;50.476;15.588;2022-08-02T02:24:05;97780.32;;;13.63;78.36
73106;BME280;61559;50.476;15.588;2022-08-02T02:26:41;97781.46;;;13.61;78.27
73106;BME280;61559;50.476;15.588;2022-08-02T02:29:23;97783.48;;;13.60;78.35
73106;BME280;61559;50.476;15.588;2022-08-02T02:31:55;97784.79;;;13.57;78.76
73106;BME280;61559;50.476;15.588;2022-08-02T02:34:31;97781.23;;;13.50;79.02
73106;BME280;61559;50.476;15.588;2022-08-02T02:37:05;97789.30;;;13.44;79.06
73106;BME280;61559;50.476;15.588;2022-08-02T02:39:37;97789.04;;;13.41;78.92
73106;BME280;61559;50.476;15.588;2022-08-02T02:42:12;97790.95;;;13.37;79.05
73106;BME280;61559;50.476;15.588;2022-08-02T02:44:45;97791.61;;;13.30;79.14
73106;BME280;61559;50.476;15.588;2022-08-02T02:47:18;97794.56;;;13.26;79.14
73106;BME280;61559;50.476;15.588;2022-08-02T02:49:50;97794.02;;;13.25;79.23
73106;BME280;61559;50.476;15.588;2022-08-02T02:52:22;97798.27;;;13.24;79.31
73106;BME280;61559;50.476;15.588;2022-08-02T02:54:54;97796.56;;;13.16;79.43
73106;BME280;61559;50.476;15.588;2022-08-02T02:57:25;97796.94;;;13.12;79.35
73106;BME280;61559;50.476;15.588;2022-08-02T02:59:56;97798.86;;;13.12;79.26
73106;BME280;61559;50.476;15.588;2022-08-02T03:02:28;97800.89;;;13.11;79.34
73106;BME280;61559;50.476;15.588;2022-08-02T03:05:00;97796.98;;;13.14;79.20
73106;BME280;61559;50.476;15.588;2022-08-02T03:07:34;97798.93;;;13.14;79.20
73106;BME280;61559;50.476;15.588;2022-08-02T03:10:06;97804.35;;;13.13;79.21
73106;BME280;61559;50.476;15.588;2022-08-02T03:12:38;97803.35;;;13.10;79.25
73106;BME280;61559;50.476;15.588;2022-08-02T03:15:13;97808.23;;;13.08;79.09
73106;BME280;61559;50.476;15.588;2022-08-02T03:17:45;97806.70;;;13.09;79.23
73106;BME280;61559;50.476;15.588;2022-08-02T03:20:18;97801.52;;;13.04;79.44
73106;BME280;61559;50.476;15.588;2022-08-02T03:22:51;97809.13;;;12.95;79.55
73106;BME280;61559;50.476;15.588;2022-08-02T03:25:22;97809.42;;;12.86;79.61
73106;BME280;61559;50.476;15.588;2022-08-02T03:27:53;97814.39;;;12.82;79.93
73106;BME280;61559;50.476;15.588;2022-08-02T03:30:24;97819.14;;;12.83;79.58
73106;BME280;61559;50.476;15.588;2022-08-02T03:32:56;97818.70;;;12.85;79.67
73106;BME280;61559;50.476;15.588;2022-08-02T03:35:27;97824.80;;;12.88;79.63
73106;BME280;61559;50.476;15.588;2022-08-02T03:37:59;97826.10;;;12.87;79.61
73106;BME280;61559;50.476;15.588;2022-08-02T03:40:32;97832.52;;;12.85;79.81
73106;BME280;61559;50.476;15.588;2022-08-02T03:43:03;97829.16;;;12.78;80.05
73106;BME280;61559;50.476;15.588;2022-08-02T03:45:36;97827.36;;;12.73;80.03
73106;BME280;61559;50.476;15.588;2022-08-02T03:48:10;97830.65;;;12.77;79.84
73106;BME280;61559;50.476;15.588;2022-08-02T03:51:02;97833.05;;;12.79;79.97
73106;BME280;61559;50.476;15.588;2022-08-02T03:53:33;97840.55;;;12.80;80.07
73106;BME280;61559;50.476;15.588;2022-08-02T03:56:05;97841.02;;;12.85;79.82
73106;BME280;61559;50.476;15.588;2022-08-02T03:58:36;97850.77;;;12.89;79.73
73106;BME280;61559;50.476;15.588;2022-08-02T04:01:05;97854.36;;;12.92;79.76
73106;BME280;61559;50.476;15.588;2022-08-02T04:03:37;97846.96;;;12.94;79.74
73106;BME280;61559;50.476;15.588;2022-08-02T04:06:08;97849.30;;;12.95;79.68
73106;BME280;61559;50.476;15.588;2022-08-02T04:08:39;97855.91;;;12.98;79.57
73106;BME280;61559;50.476;15.588;2022-08-02T04:11:08;97854.27;;;12.98;79.64
73106;BME280;61559;50.476;15.588;2022-08-02T04:13:57;97851.96;;;12.97;79.87
73106;BME280;61559;50.476;15.588;2022-08-02T04:16:36;97857.08;;;13.00;79.70
73106;BME280;61559;50.476;15.588;2022-08-02T04:19:12;97860.90;;;13.05;79.54
73106;BME280;61559;50.476;15.588;2022-08-02T04:21:46;97864.67;;;13.10;79.40
73106;BME280;61559;50.476;15.588;2022-08-02T04:24:24;97864.63;;;13.12;79.40
73106;BME280;61559;50.476;15.588;2022-08-02T04:26:57;97870.81;;;13.23;79.29
73106;BME280;61559;50.476;15.588;2022-08-02T04:29:36;97877.50;;;13.55;78.72
73106;BME280;61559;50.476;15.588;2022-08-02T04:32:13;97874.58;;;13.90;78.09
73106;BME280;61559;50.476;15.588;2022-08-02T04:34:45;97882.42;;;14.30;77.48
73106;BME280;61559;50.476;15.588;2022-08-02T04:37:37;97888.46;;;14.65;76.81
73106;BME280;61559;50.476;15.588;2022-08-02T04:40:29;97896.85;;;14.99;75.96
73106;BME280;61559;50.476;15.588;2022-08-02T04:43:00;97902.36;;;15.31;75.45
73106;BME280;61559;50.476;15.588;2022-08-02T04:45:32;97905.61;;;15.72;74.48
73106;BME280;61559;50.476;15.588;2022-08-02T04:48:04;97902.11;;;16.01;73.58
73106;BME280;61559;50.476;15.588;2022-08-02T04:50:35;97901.67;;;16.02;73.69
73106;BME280;61559;50.476;15.588;2022-08-02T04:53:06;97906.59;;;16.08;73.59
73106;BME280;61559;50.476;15.588;2022-08-02T04:55:37;97905.03;;;16.02;73.51
73106;BME280;61559;50.476;15.588;2022-08-02T04:58:08;97904.27;;;16.04;73.28
73106;BME280;61559;50.476;15.588;2022-08-02T05:00:59;97906.49;;;16.43;72.67
73106;BME280;61559;50.476;15.588;2022-08-02T05:03:30;97914.23;;;16.79;71.96
73106;BME280;61559;50.476;15.588;2022-08-02T05:06:01;97919.81;;;17.12;70.99
73106;BME280;61559;50.476;15.588;2022-08-02T05:08:47;97917.33;;;17.43;70.48
73106;BME280;61559;50.476;15.588;2022-08-02T05:11:22;97910.52;;;17.80;69.98
73106;BME280;61559;50.476;15.588;2022-08-02T05:14:05;97907.34;;;18.13;69.31
73106;BME280;61559;50.476;15.588;2022-08-02T05:16:36;97906.16;;;18.06;69.46
73106;BME280;61559;50.476;15.588;2022-08-02T05:19:07;97915.55;;;18.10;69.20
73106;BME280;61559;50.476;15.588;2022-08-02T05:21:38;97912.27;;;17.90;69.03
73106;BME280;61559;50.476;15.588;2022-08-02T05:24:09;97913.63;;;17.68;69.64
73106;BME280;61559;50.476;15.588;2022-08-02T05:26:40;97915.19;;;17.50;69.99
73106;BME280;61559;50.476;15.588;2022-08-02T05:29:11;97913.81;;;17.38;70.19
73106;BME280;61559;50.476;15.588;2022-08-02T05:31:42;97915.61;;;17.27;70.78
73106;BME280;61559;50.476;15.588;2022-08-02T05:34:14;97918.48;;;17.09;71.20
73106;BME280;61559;50.476;15.588;2022-08-02T05:36:45;97912.15;;;16.99;71.72
73106;BME280;61559;50.476;15.588;2022-08-02T05:39:16;97914.88;;;16.94;72.54
73106;BME280;61559;50.476;15.588;2022-08-02T05:41:48;97922.34;;;16.92;73.20
73106;BME280;61559;50.476;15.588;2022-08-02T05:44:19;97917.31;;;16.90;73.54
73106;BME280;61559;50.476;15.588;2022-08-02T05:46:50;97919.00;;;16.92;73.86
73106;BME280;61559;50.476;15.588;2022-08-02T05:49:21;97919.23;;;16.96;74.23
73106;BME280;61559;50.476;15.588;2022-08-02T05:52:02;97922.41;;;17.02;74.94
73106;BME280;61559;50.476;15.588;2022-08-02T05:54:38;97918.83;;;17.08;74.70
73106;BME280;61559;50.476;15.588;2022-08-02T05:57:19;97920.11;;;17.16;74.94
73106;BME280;61559;50.476;15.588;2022-08-02T06:00:03;97928.35;;;17.25;75.32
73106;BME280;61559;50.476;15.588;2022-08-02T06:02:48;97929.02;;;17.36;75.48
73106;BME280;61559;50.476;15.588;2022-08-02T06:05:22;97929.05;;;17.48;75.68
73106;BME280;61559;50.476;15.588;2022-08-02T06:07:58;97930.80;;;17.58;75.66
73106;BME280;61559;50.476;15.588;2022-08-02T06:10:30;97934.71;;;17.69;75.97
73106;BME280;61559;50.476;15.588;2022-08-02T06:13:07;97938.38;;;17.81;75.03
73106;BME280;61559;50.476;15.588;2022-08-02T06:15:43;97937.98;;;17.92;74.76
73106;BME280;61559;50.476;15.588;2022-08-02T06:18:22;97936.99;;;18.01;74.83
73106;BME280;61559;50.476;15.588;2022-08-02T06:20:59;97937.52;;;18.13;74.64
73106;BME280;61559;50.476;15.588;2022-08-02T06:23:51;97936.80;;;18.24;74.77
73106;BME280;61559;50.476;15.588;2022-08-02T06:26:28;97935.15;;;18.36;74.67
73106;BME280;61559;50.476;15.588;2022-08-02T06:28:59;97934.98;;;18.48;74.37
73106;BME280;61559;50.476;15.588;2022-08-02T06:31:31;97932.45;;;18.60;74.52
73106;BME280;61559;50.476;15.588;2022-08-02T06:34:02;97932.77;;;18.74;74.17
73106;BME280;61559;50.476;15.588;2022-08-02T06:36:39;97929.09;;;18.87;74.23
73106;BME280;61559;50.476;15.588;2022-08-02T06:39:16;97925.04;;;19.00;74.33
73106;BME280;61559;50.476;15.588;2022-08-02T06:41:49;97922.35;;;19.12;73.93
73106;BME280;61559;50.476;15.588;2022-08-02T06:44:21;97924.21;;;19.28;73.50
73106;BME280;61559;50.476;15.588;2022-08-02T06:47:12;97924.50;;;19.38;72.99
73106;BME280;61559;50.476;15.588;2022-08-02T06:49:44;97924.84;;;19.47;72.26
73106;BME280;61559;50.476;15.588;2022-08-02T06:52:23;97921.33;;;19.56;72.44
73106;BME280;61559;50.476;15.588;2022-08-02T06:54:59;97921.80;;;19.64;72.26
73106;BME280;61559;50.476;15.588;2022-08-02T06:57:31;97925.38;;;19.71;71.89
73106;BME280;61559;50.476;15.588;2022-08-02T07:00:03;97928.69;;;19.77;71.37
73106;BME280;61559;50.476;15.588;2022-08-02T07:02:35;97926.90;;;19.85;70.91
73106;BME280;61559;50.476;15.588;2022-08-02T07:05:09;97932.05;;;19.91;71.10
73106;BME280;61559;50.476;15.588;2022-08-02T07:07:40;97930.84;;;19.99;70.78
73106;BME280;61559;50.476;15.588;2022-08-02T07:10:11;97924.60;;;20.09;69.90
73106;BME280;61559;50.476;15.588;2022-08-02T07:12:42;97925.78;;;20.15;68.11
73106;BME280;61559;50.476;15.588;2022-08-02T07:15:13;97928.52;;;20.19;68.50
73106;BME280;61559;50.476;15.588;2022-08-02T07:17:44;97926.50;;;20.26;68.12
73106;BME280;61559;50.476;15.588;2022-08-02T07:20:16;97922.23;;;20.33;67.61
73106;BME280;61559;50.476;15.588;2022-08-02T07:22:47;97927.34;;;20.41;67.40
73106;BME280;61559;50.476;15.588;2022-08-02T07:25:18;97922.40;;;20.48;67.29
73106;BME280;61559;50.476;15.588;2022-08-02T07:27:49;97924.04;;;20.56;67.78
73106;BME280;61559;50.476;15.588;2022-08-02T07:30:24;97924.65;;;20.66;67.81
73106;BME280;61559;50.476;15.588;2022-08-02T07:32:55;97918.67;;;20.77;67.08
73106;BME280;61559;50.476;15.588;2022-08-02T07:35:26;97918.70;;;20.85;66.00
73106;BME280;61559;50.476;15.588;2022-08-02T07:38:00;97918.98;;;20.91;65.27
73106;BME280;61559;50.476;15.588;2022-08-02T07:40:33;97913.26;;;20.97;65.66
73106;BME280;61559;50.476;15.588;2022-08-02T07:43:04;97912.56;;;21.05;65.00
73106;BME280;61559;50.476;15.588;2022-08-02T07:45:35;97919.02;;;21.10;65.30
73106;BME280;61559;50.476;15.588;2022-08-02T07:48:26;97916.67;;;21.17;65.06
73106;BME280;61559;50.476;15.588;2022-08-02T07:50:57;97918.92;;;21.25;65.36
73106;BME280;61559;50.476;15.588;2022-08-02T07:53:28;97917.48;;;21.35;64.89
73106;BME280;61559;50.476;15.588;2022-08-02T07:56:19;97918.60;;;21.49;64.44
73106;BME280;61559;50.476;15.588;2022-08-02T07:58:50;97916.55;;;21.59;63.66
73106;BME280;61559;50.476;15.588;2022-08-02T08:01:21;97917.98;;;21.67;62.88
73106;BME280;61559;50.476;15.588;2022-08-02T08:03:52;97917.77;;;21.70;61.15
73106;BME280;61559;50.476;15.588;2022-08-02T08:06:23;97911.79;;;21.72;61.98
73106;BME280;61559;50.476;15.588;2022-08-02T08:08:58;97912.33;;;21.76;61.01
73106;BME280;61559;50.476;15.588;2022-08-02T08:11:28;97910.83;;;21.75;60.01
73106;BME280;61559;50.476;15.588;2022-08-02T08:13:59;97909.84;;;21.74;61.07
73106;BME280;61559;50.476;15.588;2022-08-02T08:16:30;97910.55;;;21.81;62.01
73106;BME280;61559;50.476;15.588;2022-08-02T08:19:01;97913.19;;;21.87;61.79
73106;BME280;61559;50.476;15.588;2022-08-02T08:21:32;97914.41;;;21.96;62.20
73106;BME280;61559;50.476;15.588;2022-08-02T08:24:05;97912.44;;;22.05;61.63
73106;BME280;61559;50.476;15.588;2022-08-02T08:26:36;97914.11;;;22.13;61.17
73106;BME280;61559;50.476;15.588;2022-08-02T08:29:08;97911.73;;;22.20;59.93
73106;BME280;61559;50.476;15.588;2022-08-02T08:31:40;97911.50;;;22.23;58.79
73106;BME280;61559;50.476;15.588;2022-08-02T08:34:11;97910.16;;;22.30;58.80
73106;BME280;61559;50.476;15.588;2022-08-02T08:36:42;97917.16;;;22.41;58.62
73106;BME280;61559;50.476;15.588;2022-08-02T08:39:13;97914.52;;;22.57;58.92
73106;BME280;61559;50.476;15.588;2022-08-02T08:41:45;97915.71;;;22.74;59.07
73106;BME280;61559;50.476;15.588;2022-08-02T08:44:16;97918.06;;;22.88;57.45
73106;BME280;61559;50.476;15.588;2022-08-02T08:46:49;97915.20;;;22.97;56.95
73106;BME280;61559;50.476;15.588;2022-08-02T08:49:26;97907.16;;;23.04;56.68
73106;BME280;61559;50.476;15.588;2022-08-02T08:52:03;97908.36;;;23.06;56.30
73106;BME280;61559;50.476;15.588;2022-08-02T08:54:42;97910.55;;;23.03;55.43
73106;BME280;61559;50.476;15.588;2022-08-02T08:57:18;97915.64;;;23.05;55.95
73106;BME280;61559;50.476;15.588;2022-08-02T08:59:49;97912.70;;;23.10;55.19
73106;BME280;61559;50.476;15.588;2022-08-02T09:02:21;97913.67;;;23.13;54.69
73106;BME280;61559;50.476;15.588;2022-08-02T09:04:57;97911.27;;;23.14;54.79
73106;BME280;61559;50.476;15.588;2022-08-02T09:07:28;97909.92;;;23.16;55.34
73106;BME280;61559;50.476;15.588;2022-08-02T09:09:59;97911.33;;;23.24;56.45
73106;BME280;61559;50.476;15.588;2022-08-02T09:12:30;97911.67;;;23.32;54.76
73106;BME280;61559;50.476;15.588;2022-08-02T09:15:04;97913.94;;;23.33;52.85
73106;BME280;61559;50.476;15.588;2022-08-02T09:17:50;97916.87;;;23.29;53.06
73106;BME280;61559;50.476;15.588;2022-08-02T09:20:21;97915.59;;;23.29;52.68
73106;BME280;61559;50.476;15.588;2022-08-02T09:23:08;97918.45;;;23.33;54.74
73106;BME280;61559;50.476;15.588;2022-08-02T09:25:39;97915.98;;;23.41;53.59
73106;BME280;61559;50.476;15.588;2022-08-02T09:28:28;97916.94;;;23.52;54.09
73106;BME280;61559;50.476;15.588;2022-08-02T09:31:05;97912.57;;;23.61;53.67
73106;BME280;61559;50.476;15.588;2022-08-02T09:33:38;97911.29;;;23.64;52.64
73106;BME280;61559;50.476;15.588;2022-08-02T09:36:10;97916.48;;;23.61;51.81
73106;BME280;61559;50.476;15.588;2022-08-02T09:38:54;97917.91;;;23.56;51.79
73106;BME280;61559;50.476;15.588;2022-08-02T09:41:27;97914.68;;;23.58;53.65
73106;BME280;61559;50.476;15.588;2022-08-02T09:44:00;97916.02;;;23.65;53.91
73106;BME280;61559;50.476;15.588;2022-08-02T09:46:36;97920.48;;;23.75;54.59
73106;BME280;61559;50.476;15.588;2022-08-02T09:49:09;97912.01;;;23.87;53.91
73106;BME280;61559;50.476;15.588;2022-08-02T09:51:50;97908.70;;;24.02;53.83
73106;BME280;61559;50.476;15.588;2022-08-02T09:54:24;97905.16;;;24.15;52.33
73106;BME280;61559;50.476;15.588;2022-08-02T09:56:57;97905.64;;;24.24;49.62
73106;BME280;61559;50.476;15.588;2022-08-02T09:59:29;97903.44;;;24.27;49.58
73106;BME280;61559;50.476;15.588;2022-08-02T10:02:01;97900.77;;;24.33;49.75
73106;BME280;61559;50.476;15.588;2022-08-02T10:04:46;97895.06;;;24.40;49.70
73106;BME280;61559;50.476;15.588;2022-08-02T10:07:23;97888.09;;;24.47;50.19
73106;BME280;61559;50.476;15.588;2022-08-02T10:10:14;97885.21;;;24.59;50.91
73106;BME280;61559;50.476;15.588;2022-08-02T10:12:44;97880.48;;;24.66;49.04
73106;BME280;61559;50.476;15.588;2022-08-02T10:15:16;97885.16;;;24.74;48.97
73106;BME280;61559;50.476;15.588;2022-08-02T10:17:47;97882.77;;;24.80;48.96
73106;BME280;61559;50.476;15.588;2022-08-02T10:20:19;97885.38;;;24.84;47.63
73106;BME280;61559;50.476;15.588;2022-08-02T10:22:51;97883.25;;;24.86;47.86
73106;BME280;61559;50.476;15.588;2022-08-02T10:25:23;97882.14;;;24.91;49.03
73106;BME280;61559;50.476;15.588;2022-08-02T10:27:54;97884.80;;;24.99;48.71
73106;BME280;61559;50.476;15.588;2022-08-02T10:30:35;97875.94;;;25.06;48.33
73106;BME280;61559;50.476;15.588;2022-08-02T10:33:09;97874.11;;;25.13;48.67
73106;BME280;61559;50.476;15.588;2022-08-02T10:35:41;97874.95;;;25.24;48.22
73106;BME280;61559;50.476;15.588;2022-08-02T10:38:13;97870.10;;;25.33;48.50
73106;BME280;61559;50.476;15.588;2022-08-02T10:40:47;97873.02;;;25.42;46.02
73106;BME280;61559;50.476;15.588;2022-08-02T10:43:47;97869.20;;;25.45;46.14
73106;BME280;61559;50.476;15.588;2022-08-02T10:46:31;97871.91;;;25.52;45.98
73106;BME280;61559;50.476;15.588;2022-08-02T10:49:05;97870.28;;;25.50;45.42
73106;BME280;61559;50.476;15.588;2022-08-02T10:52:12;97875.91;;;25.46;45.63
73106;BME280;61559;50.476;15.588;2022-08-02T10:54:49;97870.58;;;25.51;46.71
73106;BME280;61559;50.476;15.588;2022-08-02T10:57:26;97864.56;;;25.61;46.08
73106;BME280;61559;50.476;15.588;2022-08-02T11:00:00;97865.15;;;25.66;44.36
73106;BME280;61559;50.476;15.588;2022-08-02T11:02:36;97867.64;;;25.64;44.65
73106;BME280;61559;50.476;15.588;2022-08-02T11:05:11;97866.06;;;25.61;45.04
73106;BME280;61559;50.476;15.588;2022-08-02T11:07:44;97861.29;;;25.58;45.49
73106;BME280;61559;50.476;15.588;2022-08-02T11:10:38;97863.63;;;25.59;46.22
73106;BME280;61559;50.476;15.588;2022-08-02T11:13:11;97859.71;;;25.64;44.71
73106;BME280;61559;50.476;15.588;2022-08-02T11:16:00;97859.38;;;25.60;43.68
73106;BME280;61559;50.476;15.588;2022-08-02T11:19:02;97853.58;;;25.54;43.89
73106;BME280;61559;50.476;15.588;2022-08-02T11:21:36;97856.77;;;25.58;44.85
73106;BME280;61559;50.476;15.588;2022-08-02T11:24:27;97856.60;;;25.67;45.51
73106;BME280;61559;50.476;15.588;2022-08-02T11:26:59;97857.52;;;25.77;45.11
73106;BME280;61559;50.476;15.588;2022-08-02T11:29:38;97861.25;;;25.81;45.51
73106;BME280;61559;50.476;15.588;2022-08-02T11:32:16;97866.75;;;25.81;44.63
73106;BME280;61559;50.476;15.588;2022-08-02T11:34:51;97867.21;;;25.81;45.13
73106;BME280;61559;50.476;15.588;2022-08-02T11:37:32;97866.52;;;25.81;43.40
73106;BME280;61559;50.476;15.588;2022-08-02T11:40:06;97856.98;;;25.79;44.04
73106;BME280;61559;50.476;15.588;2022-08-02T11:42:48;97853.91;;;25.82;45.00
73106;BME280;61559;50.476;15.588;2022-08-02T11:45:25;97854.41;;;25.90;45.48
73106;BME280;61559;50.476;15.588;2022-08-02T11:47:58;97850.05;;;25.98;44.29
73106;BME280;61559;50.476;15.588;2022-08-02T11:50:29;97855.56;;;26.07;44.63
73106;BME280;61559;50.476;15.588;2022-08-02T11:53:00;97849.77;;;26.17;44.34
73106;BME280;61559;50.476;15.588;2022-08-02T11:55:32;97855.34;;;26.27;43.20
73106;BME280;61559;50.476;15.588;2022-08-02T11:58:05;97849.63;;;26.32;42.73
73106;BME280;61559;50.476;15.588;2022-08-02T12:00:36;97848.73;;;26.32;41.81
73106;BME280;61559;50.476;15.588;2022-08-02T12:03:08;97846.65;;;26.28;41.61
73106;BME280;61559;50.476;15.588;2022-08-02T12:05:41;97847.61;;;26.29;42.33
73106;BME280;61559;50.476;15.588;2022-08-02T12:08:36;97853.09;;;26.33;41.19
73106;BME280;61559;50.476;15.588;2022-08-02T12:11:07;97846.66;;;26.34;42.01
73106;BME280;61559;50.476;15.588;2022-08-02T12:13:45;97844.83;;;26.35;41.10
73106;BME280;61559;50.476;15.588;2022-08-02T12:16:31;97847.53;;;26.36;40.63
73106;BME280;61559;50.476;15.588;2022-08-02T12:19:21;97841.95;;;26.41;41.28
73106;BME280;61559;50.476;15.588;2022-08-02T12:22:13;97842.54;;;26.47;40.16
73106;BME280;61559;50.476;15.588;2022-08-02T12:24:46;97834.82;;;26.57;40.18
73106;BME280;61559;50.476;15.588;2022-08-02T12:27:31;97827.23;;;26.63;41.10
73106;BME280;61559;50.476;15.588;2022-08-02T12:30:06;97829.46;;;26.69;41.65
73106;BME280;61559;50.476;15.588;2022-08-02T12:32:38;97835.61;;;26.72;40.22
73106;BME280;61559;50.476;15.588;2022-08-02T12:35:11;97837.31;;;26.69;40.44
73106;BME280;61559;50.476;15.588;2022-08-02T12:37:55;97832.73;;;26.72;41.29
73106;BME280;61559;50.476;15.588;2022-08-02T12:40:28;97826.82;;;26.73;39.87
73106;BME280;61559;50.476;15.588;2022-08-02T12:43:01;97827.91;;;26.67;40.28
73106;BME280;61559;50.476;15.588;2022-08-02T12:45:45;97828.18;;;26.65;40.66
73106;BME280;61559;50.476;15.588;2022-08-02T12:48:25;97829.86;;;26.64;39.57
73106;BME280;61559;50.476;15.588;2022-08-02T12:51:21;97833.16;;;26.61;39.55
73106;BME280;61559;50.476;15.588;2022-08-02T12:53:54;97835.80;;;26.52;38.68
73106;BME280;61559;50.476;15.588;2022-08-02T12:56:30;97835.44;;;26.47;39.04
73106;BME280;61559;50.476;15.588;2022-08-02T12:59:02;97832.16;;;26.49;40.74
73106;BME280;61559;50.476;15.588;2022-08-02T13:01:33;97824.75;;;26.54;41.01
73106;BME280;61559;50.476;15.588;2022-08-02T13:04:05;97821.89;;;26.62;40.50
73106;BME280;61559;50.476;15.588;2022-08-02T13:06:42;97818.30;;;26.64;39.03
73106;BME280;61559;50.476;15.588;2022-08-02T13:09:17;97820.11;;;26.65;40.16
73106;BME280;61559;50.476;15.588;2022-08-02T13:11:48;97815.94;;;26.66;38.72
73106;BME280;61559;50.476;15.588;2022-08-02T13:14:20;97812.33;;;26.61;39.05
73106;BME280;61559;50.476;15.588;2022-08-02T13:16:51;97812.91;;;26.54;39.29
73106;BME280;61559;50.476;15.588;2022-08-02T13:19:22;97811.41;;;26.43;38.79
73106;BME280;61559;50.476;15.588;2022-08-02T13:21:52;97814.23;;;26.37;40.50
73106;BME280;61559;50.476;15.588;2022-08-02T13:24:39;97811.50;;;26.38;40.16
73106;BME280;61559;50.476;15.588;2022-08-02T13:27:25;97811.34;;;26.39;40.61
73106;BME280;61559;50.476;15.588;2022-08-02T13:29:57;97808.92;;;26.43;41.03
73106;BME280;61559;50.476;15.588;2022-08-02T13:32:28;97805.80;;;26.50;40.03